Time;durP1;ratioP1;P1;durP2;ratioP2;P2;SDS_P1;SDS_P2;PMS_P1;PMS_P2;Temp;Humidity;BMP_temperature;BMP_pressure;BME280_temperature;BME280_humidity;BME280_pressure;Samples;Min_cycle;Max_cycle;Signal;HPM_P1;HPM_P2
2023/01/18 00:01:41;;;;;;;15.15;7.93;;;;;;;;;;5005315;28;87454;-74
2023/01/18 00:04:07;;;;;;;14.40;6.57;;;;;;;;;;5012295;28;86836;-65
2023/01/18 00:06:34;;;;;;;11.43;4.72;;;;;;;;;;5004879;28;86931;-69
2023/01/18 00:09:00;;;;;;;7.32;3.60;;;;;;;;;;4991570;28;87068;-68
2023/01/18 00:11:26;;;;;;;7.65;3.13;;;;;;;;;;4998689;28;87919;-70
2023/01/18 00:13:53;;;;;;;6.78;2.40;;;;;;;;;;4983751;28;87377;-70
2023/01/18 00:16:20;;;;;;;7.90;2.60;;;;;;;;;;5006762;28;87654;-68
2023/01/18 00:18:51;;;;;;;6.00;2.10;;;;;;;;;;5013410;28;90101;-69
2023/01/18 00:21:18;;;;;;;5.03;1.90;;;;;;;;;;4998240;28;87004;-71
2023/01/18 00:23:44;;;;;;;4.32;1.77;;;;;;;;;;4992001;28;87552;-71
2023/01/18 00:26:11;;;;;;;3.33;1.30;;;;;;;;;;5004949;28;86634;-69
2023/01/18 00:28:38;;;;;;;4.50;1.60;;;;;;;;;;5002352;28;87664;-67
2023/01/18 00:31:12;;;;;;;2.55;1.30;;;;;;;;;;4986198;28;87205;-70
2023/01/18 00:33:40;;;;;;;3.45;1.52;;;;;;;;;;4990770;28;87835;-69
2023/01/18 00:36:07;;;;;;;1.98;1.00;;;;;;;;;;5007851;28;87962;-70
2023/01/18 00:38:33;;;;;;;1.38;0.90;;;;;;;;;;5007691;28;87158;-65
2023/01/18 00:41:00;;;;;;;2.05;0.95;;;;;;;;;;5006068;28;87676;-68
2023/01/18 00:43:38;;;;;;;3.10;1.00;;;;;;;;;;5005651;28;88096;-68
2023/01/18 00:46:06;;;;;;;3.00;1.00;;;;;;;;;;5010797;28;87568;-69
2023/01/18 00:48:33;;;;;;;2.17;0.90;;;;;;;;;;5009227;28;86979;-66
2023/01/18 00:51:00;;;;;;;1.95;0.95;;;;;;;;;;5002448;28;86963;-67
2023/01/18 00:53:26;;;;;;;1.30;0.70;;;;;;;;;;5007862;28;86826;-67
2023/01/18 00:55:52;;;;;;;1.25;0.80;;;;;;;;;;5007618;28;87614;-67
2023/01/18 00:58:19;;;;;;;2.22;0.90;;;;;;;;;;5005805;28;86919;-68
2023/01/18 01:00:47;;;;;;;1.25;0.90;;;;;;;;;;5003367;28;87396;-67
2023/01/18 01:03:14;;;;;;;2.35;1.10;;;;;;;;;;5004554;28;86996;-68
2023/01/18 01:08:25;;;;;;;2.00;0.90;;;;;;;;;;5006511;28;86969;-68
2023/01/18 01:10:52;;;;;;;1.77;1.00;;;;;;;;;;5005081;28;86552;-68
2023/01/18 01:27:07;;;;;;;3.05;1.35;;;;;;;;;;5018280;28;90985;-65
2023/01/18 01:29:33;;;;;;;3.28;1.30;;;;;;;;;;5018742;27;87248;-67
2023/01/18 01:31:59;;;;;;;4.18;1.30;;;;;;;;;;5023850;27;86565;-67
2023/01/18 01:34:26;;;;;;;3.80;1.30;;;;;;;;;;5015299;28;88318;-66
2023/01/18 01:36:52;;;;;;;17.58;2.10;;;;;;;;;;5002976;28;88961;-65
2023/01/18 01:39:18;;;;;;;5.00;1.60;;;;;;;;;;5004818;28;87704;-65
2023/01/18 01:41:45;;;;;;;13.60;2.10;;;;;;;;;;5004622;28;89025;-64
2023/01/18 01:44:20;;;;;;;6.60;2.00;;;;;;;;;;5002068;28;88670;-66
2023/01/18 01:46:50;;;;;;;8.48;2.15;;;;;;;;;;5005434;28;88378;-66
2023/01/18 01:49:25;;;;;;;8.25;2.10;;;;;;;;;;5004135;28;87759;-65
2023/01/18 01:52:18;;;;;;;6.63;2.15;;;;;;;;;;5002477;28;88357;-65
2023/01/18 01:54:53;;;;;;;5.45;2.40;;;;;;;;;;4999144;28;88658;-66
2023/01/18 01:57:21;;;;;;;7.85;2.55;;;;;;;;;;5009591;28;87926;-65
2023/01/18 01:59:51;;;;;;;7.65;2.30;;;;;;;;;;4992334;28;88906;-65
2023/01/18 02:02:17;;;;;;;7.95;2.83;;;;;;;;;;5002478;28;87623;-66
2023/01/18 02:04:45;;;;;;;8.68;2.80;;;;;;;;;;5001275;28;87785;-66
2023/01/18 02:07:12;;;;;;;8.13;3.13;;;;;;;;;;5004822;28;87993;-66
2023/01/18 02:09:38;;;;;;;8.23;2.88;;;;;;;;;;5015278;28;89038;-66
2023/01/18 02:12:04;;;;;;;6.75;2.72;;;;;;;;;;5025805;27;88846;-65
2023/01/18 02:14:31;;;;;;;6.88;2.45;;;;;;;;;;5025818;27;87583;-66
2023/01/18 02:16:57;;;;;;;7.65;2.90;;;;;;;;;;5018452;27;87817;-64
2023/01/18 02:19:37;;;;;;;6.75;2.72;;;;;;;;;;5025476;27;88361;-65
2023/01/18 02:22:21;;;;;;;10.63;2.50;;;;;;;;;;5025397;27;89108;-65
2023/01/18 02:24:48;;;;;;;6.43;2.60;;;;;;;;;;5024525;27;88264;-69
2023/01/18 02:27:20;;;;;;;6.90;2.90;;;;;;;;;;5025622;27;87469;-65
2023/01/18 02:29:50;;;;;;;6.95;2.80;;;;;;;;;;5025790;27;88533;-65
2023/01/18 02:32:24;;;;;;;6.78;2.53;;;;;;;;;;5020105;28;88756;-66
2023/01/18 02:34:55;;;;;;;6.20;2.67;;;;;;;;;;5024917;28;89072;-64
2023/01/18 02:37:31;;;;;;;7.07;2.60;;;;;;;;;;5025355;28;87698;-64
2023/01/18 02:39:58;;;;;;;6.32;2.45;;;;;;;;;;5009900;28;88043;-65
2023/01/18 02:48:17;;;;;;;7.43;2.78;;;;;;;;;;5019977;28;88714;-64
2023/01/18 02:50:44;;;;;;;6.85;2.38;;;;;;;;;;5005548;28;89426;-66
2023/01/18 02:53:13;;;;;;;6.40;2.80;;;;;;;;;;5010110;28;87181;-66
2023/01/18 02:55:43;;;;;;;7.20;2.50;;;;;;;;;;5027895;28;88127;-66
2023/01/18 02:58:33;;;;;;;6.10;2.70;;;;;;;;;;5019533;28;87626;-66
2023/01/18 03:01:09;;;;;;;6.43;2.70;;;;;;;;;;5010943;28;88701;-65
2023/01/18 03:03:37;;;;;;;6.22;2.67;;;;;;;;;;5024471;27;88559;-66
2023/01/18 03:06:06;;;;;;;5.72;2.42;;;;;;;;;;5025155;28;87824;-65
2023/01/18 03:08:36;;;;;;;6.55;2.58;;;;;;;;;;5024703;27;88116;-66
2023/01/18 03:11:04;;;;;;;8.30;2.75;;;;;;;;;;5024742;27;92563;-65
2023/01/18 03:13:40;;;;;;;6.00;2.67;;;;;;;;;;5024932;27;87807;-65
2023/01/18 03:16:10;;;;;;;7.18;2.83;;;;;;;;;;5018978;27;88527;-65
2023/01/18 03:19:00;;;;;;;6.90;2.72;;;;;;;;;;5027405;27;87702;-64
2023/01/18 03:21:33;;;;;;;6.60;2.80;;;;;;;;;;5025312;27;87925;-65
2023/01/18 03:24:01;;;;;;;6.72;2.72;;;;;;;;;;5013533;28;88752;-64
2023/01/18 03:26:27;;;;;;;;;;;;;;;;;;5020784;28;88407;-66
2023/01/18 03:34:36;;;;;;;7.72;2.78;;;;;;;;;;5024110;27;87585;-64
2023/01/18 03:37:07;;;;;;;7.78;2.90;;;;;;;;;;5024492;27;93879;-65
2023/01/18 03:39:41;;;;;;;7.03;3.08;;;;;;;;;;5033394;27;89813;-65
2023/01/18 03:42:13;;;;;;;6.90;2.78;;;;;;;;;;5018320;27;87674;-65
2023/01/18 03:44:54;;;;;;;6.03;2.92;;;;;;;;;;5024381;27;88100;-64
2023/01/18 03:47:21;;;;;;;6.15;3.00;;;;;;;;;;5012564;28;87638;-66
2023/01/18 03:49:47;;;;;;;5.85;2.60;;;;;;;;;;5024595;28;88101;-65
2023/01/18 03:52:16;;;;;;;6.93;2.90;;;;;;;;;;5023307;28;89518;-65
2023/01/18 03:54:55;;;;;;;7.47;2.70;;;;;;;;;;5021326;28;87971;-65
2023/01/18 03:57:27;;;;;;;6.00;2.60;;;;;;;;;;5024439;27;88417;-65
2023/01/18 03:59:53;;;;;;;7.15;2.80;;;;;;;;;;5024006;27;87837;-65
2023/01/18 04:02:21;;;;;;;6.72;2.92;;;;;;;;;;5016199;27;89058;-66
2023/01/18 04:04:48;;;;;;;6.50;2.80;;;;;;;;;;5023390;27;88239;-66
2023/01/18 04:07:14;;;;;;;7.25;3.03;;;;;;;;;;5017085;28;87755;-65
2023/01/18 04:09:41;;;;;;;6.90;2.92;;;;;;;;;;5036617;27;88869;-64
2023/01/18 04:12:07;;;;;;;7.18;2.88;;;;;;;;;;5014578;27;87605;-65
2023/01/18 04:14:33;;;;;;;7.72;3.40;;;;;;;;;;5023896;27;87654;-64
2023/01/18 04:17:00;;;;;;;6.28;2.60;;;;;;;;;;5016223;28;88758;-65
2023/01/18 04:19:27;;;;;;;7.38;3.00;;;;;;;;;;5018856;28;89509;-65
2023/01/18 04:21:53;;;;;;;7.60;3.13;;;;;;;;;;5021812;28;87696;-65
2023/01/18 04:24:20;;;;;;;5.95;2.75;;;;;;;;;;5026279;27;87792;-65
2023/01/18 04:26:46;;;;;;;6.78;2.92;;;;;;;;;;5021456;28;88381;-64
2023/01/18 04:29:12;;;;;;;6.72;2.80;;;;;;;;;;5023692;28;88094;-65
2023/01/18 04:31:39;;;;;;;6.53;2.83;;;;;;;;;;5022272;28;88487;-64
2023/01/18 04:34:05;;;;;;;7.13;2.88;;;;;;;;;;5013702;28;86974;-64
2023/01/18 04:36:32;;;;;;;6.75;2.90;;;;;;;;;;5022502;28;88065;-64
2023/01/18 04:38:58;;;;;;;7.47;3.08;;;;;;;;;;5015037;28;88569;-65
2023/01/18 04:41:24;;;;;;;7.25;3.10;;;;;;;;;;5018116;28;88712;-65
2023/01/18 04:43:51;;;;;;;8.07;3.22;;;;;;;;;;4999191;28;89221;-63
2023/01/18 04:46:17;;;;;;;7.30;3.10;;;;;;;;;;5020872;28;88359;-64
2023/01/18 04:48:47;;;;;;;6.72;2.70;;;;;;;;;;5011023;28;88821;-65
2023/01/18 04:51:14;;;;;;;6.35;2.70;;;;;;;;;;5013969;27;88122;-65
2023/01/18 04:53:40;;;;;;;6.47;2.80;;;;;;;;;;5023163;28;87661;-65
2023/01/18 04:56:07;;;;;;;6.88;2.88;;;;;;;;;;5023540;28;88110;-65
2023/01/18 04:58:33;;;;;;;7.82;3.42;;;;;;;;;;5008462;27;87991;-65
2023/01/18 05:01:00;;;;;;;6.57;2.90;;;;;;;;;;5002663;28;88124;-65
2023/01/18 05:03:27;;;;;;;6.55;2.72;;;;;;;;;;5012583;28;87991;-65
2023/01/18 05:05:54;;;;;;;6.63;2.85;;;;;;;;;;5016589;28;89967;-65
2023/01/18 05:08:20;;;;;;;6.95;3.00;;;;;;;;;;5005539;28;87833;-64
2023/01/18 05:10:47;;;;;;;7.00;3.08;;;;;;;;;;5002727;28;88242;-64
2023/01/18 05:13:13;;;;;;;6.85;3.00;;;;;;;;;;5002734;28;88257;-64
2023/01/18 05:15:39;;;;;;;6.65;2.80;;;;;;;;;;5003208;28;88096;-64
2023/01/18 05:18:06;;;;;;;6.50;2.90;;;;;;;;;;5012282;28;90195;-64
2023/01/18 05:20:32;;;;;;;6.30;2.88;;;;;;;;;;5019265;28;88130;-64
2023/01/18 05:22:58;;;;;;;8.35;3.00;;;;;;;;;;5022454;28;88243;-64
2023/01/18 05:25:25;;;;;;;6.70;2.80;;;;;;;;;;5023134;28;88373;-64
2023/01/18 05:27:52;;;;;;;6.95;2.92;;;;;;;;;;5019834;28;87784;-63
2023/01/18 05:30:18;;;;;;;7.95;3.05;;;;;;;;;;5025986;28;89257;-62
2023/01/18 05:32:44;;;;;;;7.20;2.90;;;;;;;;;;5009607;28;87973;-62
2023/01/18 05:35:12;;;;;;;6.55;2.65;;;;;;;;;;5021793;28;88507;-63
2023/01/18 05:37:38;;;;;;;7.93;3.17;;;;;;;;;;5022511;28;88774;-63
2023/01/18 05:40:05;;;;;;;8.63;2.85;;;;;;;;;;5005642;28;88373;-64
2023/01/18 05:42:32;;;;;;;6.45;2.80;;;;;;;;;;5011689;28;88819;-64
2023/01/18 05:44:58;;;;;;;7.30;2.95;;;;;;;;;;5005963;28;87822;-64
2023/01/18 05:47:25;;;;;;;6.93;2.92;;;;;;;;;;5022804;27;87052;-64
2023/01/18 05:49:51;;;;;;;6.03;2.70;;;;;;;;;;5019678;27;88316;-64
2023/01/18 05:52:17;;;;;;;6.15;2.58;;;;;;;;;;5028547;27;88422;-63
2023/01/18 05:54:44;;;;;;;5.80;2.50;;;;;;;;;;5024569;27;88624;-64
2023/01/18 05:57:10;;;;;;;7.03;2.83;;;;;;;;;;5025331;28;88505;-65
2023/01/18 05:59:37;;;;;;;7.85;2.85;;;;;;;;;;5026065;28;88034;-64
2023/01/18 06:02:03;;;;;;;6.75;3.05;;;;;;;;;;5026142;27;88083;-64
2023/01/18 06:04:29;;;;;;;6.50;2.63;;;;;;;;;;5015004;28;88333;-64
2023/01/18 06:06:56;;;;;;;7.93;3.20;;;;;;;;;;5025924;27;88151;-64
2023/01/18 06:09:22;;;;;;;7.88;2.95;;;;;;;;;;5025864;27;87724;-64
2023/01/18 06:11:49;;;;;;;7.30;2.67;;;;;;;;;;5029308;27;88024;-63
2023/01/18 06:14:15;;;;;;;6.50;2.80;;;;;;;;;;5015209;27;87769;-64
2023/01/18 06:16:41;;;;;;;8.60;3.10;;;;;;;;;;5025512;27;87756;-65
2023/01/18 06:19:08;;;;;;;8.90;3.10;;;;;;;;;;5023329;27;88261;-65
2023/01/18 06:21:34;;;;;;;9.70;3.10;;;;;;;;;;5025496;27;88804;-64
2023/01/18 06:24:01;;;;;;;6.85;2.88;;;;;;;;;;5019267;28;88268;-64
2023/01/18 06:26:29;;;;;;;7.03;2.97;;;;;;;;;;5025986;27;87627;-65
2023/01/18 06:28:56;;;;;;;7.18;2.90;;;;;;;;;;5025219;27;88062;-64
2023/01/18 06:31:23;;;;;;;6.70;2.90;;;;;;;;;;5024134;28;88496;-63
2023/01/18 06:33:49;;;;;;;7.15;3.03;;;;;;;;;;5018187;28;87697;-65
2023/01/18 06:36:15;;;;;;;6.28;2.70;;;;;;;;;;5026085;28;87954;-65
2023/01/18 06:38:42;;;;;;;5.97;2.60;;;;;;;;;;5019288;28;87773;-65
2023/01/18 06:41:08;;;;;;;7.32;2.85;;;;;;;;;;5005712;28;88268;-65
2023/01/18 06:43:35;;;;;;;6.90;2.92;;;;;;;;;;5022240;28;89182;-65
2023/01/18 06:46:01;;;;;;;6.25;2.85;;;;;;;;;;5025914;28;87610;-64
2023/01/18 06:48:28;;;;;;;6.70;2.80;;;;;;;;;;5011138;28;87713;-65
2023/01/18 06:50:55;;;;;;;7.38;2.95;;;;;;;;;;5024523;28;88214;-65
2023/01/18 06:53:22;;;;;;;7.22;2.88;;;;;;;;;;5024869;28;87516;-64
2023/01/18 06:55:53;;;;;;;7.60;3.17;;;;;;;;;;5018941;28;87868;-64
2023/01/18 06:58:19;;;;;;;7.75;2.97;;;;;;;;;;5024775;28;87614;-64
2023/01/18 07:00:45;;;;;;;7.78;3.08;;;;;;;;;;5024791;28;87469;-64
2023/01/18 07:03:12;;;;;;;6.90;2.83;;;;;;;;;;5017331;28;88612;-65
2023/01/18 07:05:38;;;;;;;6.93;3.05;;;;;;;;;;5019045;28;87591;-64
2023/01/18 07:08:05;;;;;;;8.00;3.05;;;;;;;;;;5004001;28;88365;-65
2023/01/18 07:10:31;;;;;;;7.25;3.20;;;;;;;;;;5015884;28;88429;-65
2023/01/18 07:12:58;;;;;;;6.95;2.97;;;;;;;;;;5024100;28;88537;-65
2023/01/18 07:15:25;;;;;;;7.45;3.15;;;;;;;;;;5024878;28;88114;-64
2023/01/18 07:17:51;;;;;;;7.05;2.88;;;;;;;;;;5004026;28;89039;-64
2023/01/18 07:20:18;;;;;;;6.22;2.63;;;;;;;;;;4995825;28;88402;-64
2023/01/18 07:22:49;;;;;;;7.03;2.92;;;;;;;;;;5004349;28;88179;-65
2023/01/18 07:25:19;;;;;;;7.85;3.05;;;;;;;;;;5025103;27;86922;-65
2023/01/18 07:27:47;;;;;;;7.85;2.90;;;;;;;;;;5023086;28;89174;-64
2023/01/18 07:30:14;;;;;;;6.45;2.63;;;;;;;;;;5024534;27;88899;-65
2023/01/18 07:32:46;;;;;;;7.57;2.80;;;;;;;;;;5014960;27;88465;-65
2023/01/18 07:35:12;;;;;;;6.20;2.53;;;;;;;;;;5023471;27;88819;-65
2023/01/18 07:37:39;;;;;;;6.40;2.60;;;;;;;;;;5025250;27;88254;-65
2023/01/18 07:40:07;;;;;;;7.65;2.75;;;;;;;;;;5024437;28;87588;-65
2023/01/18 07:42:33;;;;;;;8.70;2.78;;;;;;;;;;5018425;27;88472;-65
2023/01/18 07:45:00;;;;;;;6.30;2.50;;;;;;;;;;5023664;27;87970;-65
2023/01/18 07:47:26;;;;;;;6.57;2.53;;;;;;;;;;5020779;28;88811;-65
2023/01/18 07:49:53;;;;;;;6.68;2.83;;;;;;;;;;5007261;28;87011;-64
2023/01/18 07:52:19;;;;;;;6.15;2.50;;;;;;;;;;5020718;27;88033;-64
2023/01/18 07:54:46;;;;;;;6.35;2.40;;;;;;;;;;5023369;27;88285;-65
2023/01/18 07:57:12;;;;;;;7.97;3.00;;;;;;;;;;5022938;27;89231;-64
2023/01/18 07:59:39;;;;;;;6.68;2.75;;;;;;;;;;5023520;27;88004;-64
2023/01/18 08:02:07;;;;;;;7.78;2.97;;;;;;;;;;5026487;27;88023;-64
2023/01/18 08:04:33;;;;;;;7.78;2.60;;;;;;;;;;5010562;28;87765;-64
2023/01/18 08:07:00;;;;;;;8.02;2.95;;;;;;;;;;5021501;28;87839;-65
2023/01/18 08:09:26;;;;;;;7.50;2.88;;;;;;;;;;5023301;28;87598;-64
2023/01/18 08:11:54;;;;;;;5.65;2.70;;;;;;;;;;5003346;28;87752;-65
2023/01/18 08:14:20;;;;;;;8.27;3.22;;;;;;;;;;5020877;27;88344;-64
2023/01/18 08:16:46;;;;;;;7.13;3.00;;;;;;;;;;5005014;28;88748;-64
2023/01/18 08:19:13;;;;;;;8.38;3.10;;;;;;;;;;5013832;28;88134;-65
2023/01/18 08:21:39;;;;;;;6.82;3.10;;;;;;;;;;5016256;28;88619;-66
2023/01/18 08:24:05;;;;;;;6.45;2.90;;;;;;;;;;5023364;28;90028;-63
2023/01/18 08:26:33;;;;;;;6.72;2.95;;;;;;;;;;5023802;28;88123;-64
2023/01/18 08:29:00;;;;;;;5.82;2.90;;;;;;;;;;5022365;28;88198;-65
2023/01/18 08:31:26;;;;;;;5.70;2.65;;;;;;;;;;5014831;28;88098;-64
2023/01/18 08:33:53;;;;;;;8.23;3.03;;;;;;;;;;4992977;28;88578;-64
2023/01/18 08:36:20;;;;;;;7.38;2.60;;;;;;;;;;4983820;28;88258;-63
2023/01/18 08:38:56;;;;;;;7.88;2.90;;;;;;;;;;5028259;28;87421;-64
2023/01/18 08:41:27;;;;;;;6.38;2.88;;;;;;;;;;5018208;27;87943;-65
2023/01/18 08:43:54;;;;;;;5.97;2.65;;;;;;;;;;5024439;28;88642;-64
2023/01/18 08:46:21;;;;;;;8.25;3.08;;;;;;;;;;5006841;28;88858;-65
2023/01/18 08:48:48;;;;;;;8.27;2.80;;;;;;;;;;5009648;27;88273;-64
